createdAt,value
2018-06-17T00:02:26.033Z,20.83
2018-06-17T00:04:53.667Z,19.37
2018-06-17T00:07:21.376Z,19.97
2018-06-17T00:09:50.117Z,17.30
2018-06-17T00:12:17.980Z,21.17
2018-06-17T00:14:45.888Z,18.13
2018-06-17T00:17:13.831Z,18.03
2018-06-17T00:19:41.527Z,15.27
2018-06-17T00:22:09.281Z,17.67
2018-06-17T00:24:36.847Z,18.53
2018-06-17T00:27:04.440Z,16.10
2018-06-17T00:29:31.979Z,15.83
2018-06-17T00:31:59.640Z,12.20
2018-06-17T00:34:27.202Z,14.23
2018-06-17T00:36:54.747Z,14.03
2018-06-17T00:39:22.304Z,10.40
2018-06-17T00:41:50.087Z,10.53
2018-06-17T00:44:18.035Z,12.53
2018-06-17T00:46:45.839Z,12.37
2018-06-17T00:49:14.651Z,14.07
2018-06-17T00:51:44.030Z,13.90
2018-06-17T00:54:15.080Z,11.03
2018-06-17T00:56:49.130Z,13.97
2018-06-17T00:59:18.931Z,13.87
2018-06-17T01:01:47.827Z,12.50
2018-06-17T01:04:17.898Z,14.53
2018-06-17T01:06:47.920Z,15.03
2018-06-17T01:09:18.528Z,9.70
2018-06-17T01:11:47.711Z,12.30
2018-06-17T01:14:15.887Z,9.40
2018-06-17T01:16:48.375Z,9.57
2018-06-17T01:19:17.624Z,11.00
2018-06-17T01:21:45.181Z,11.03
2018-06-17T01:24:12.731Z,9.53
2018-06-17T01:26:40.333Z,7.00
2018-06-17T01:29:07.932Z,9.40
2018-06-17T01:31:35.568Z,6.83
2018-06-17T01:34:03.152Z,10.17
2018-06-17T01:36:30.941Z,9.77
2018-06-17T01:38:58.778Z,7.10
2018-06-17T01:41:26.659Z,9.43
2018-06-17T01:43:54.207Z,10.60
2018-06-17T01:46:22.162Z,6.83
2018-06-17T01:48:49.820Z,10.07
2018-06-17T01:51:18.412Z,6.97
2018-06-17T01:53:48.519Z,11.60
2018-06-17T01:56:16.069Z,8.73
2018-06-17T01:58:43.652Z,7.83
2018-06-17T02:01:11.291Z,8.87
2018-06-17T02:03:44.467Z,10.23
2018-06-17T02:06:17.699Z,12.00
2018-06-17T02:08:50.892Z,8.97
2018-06-17T02:11:24.260Z,12.87
2018-06-17T02:13:51.963Z,10.20
2018-06-17T02:16:19.587Z,8.87
2018-06-17T02:18:47.150Z,10.77
2018-06-17T02:21:14.751Z,12.33
2018-06-17T02:23:42.363Z,13.30
2018-06-17T02:26:10.001Z,12.10
2018-06-17T02:28:37.743Z,17.33
2018-06-17T02:31:05.760Z,17.10
2018-06-17T02:33:33.345Z,19.60
2018-06-17T02:36:01.012Z,11.97
2018-06-17T02:38:29.122Z,9.57
2018-06-17T02:40:56.705Z,10.07
2018-06-17T02:43:24.451Z,9.37
2018-06-17T02:46:56.366Z,16.87
2018-06-17T02:49:29.571Z,14.10
2018-06-17T02:52:02.683Z,11.83
2018-06-17T02:54:36.004Z,12.30
2018-06-17T02:57:04.277Z,12.10
2018-06-17T02:59:31.950Z,13.80
2018-06-17T03:01:59.956Z,12.43
2018-06-17T03:04:27.477Z,14.63
2018-06-17T03:06:57.471Z,13.17
2018-06-17T03:09:25.152Z,14.13
2018-06-17T03:11:55.741Z,13.17
2018-06-17T03:14:23.370Z,11.53
2018-06-17T03:16:51.172Z,13.90
2018-06-17T03:19:18.983Z,14.03
2018-06-17T03:21:46.620Z,10.43
2018-06-17T03:24:14.213Z,11.70
2018-06-17T03:26:47.489Z,13.10
2018-06-17T03:29:20.736Z,15.00
2018-06-17T03:31:56.799Z,10.40
2018-06-17T03:34:24.413Z,11.83
2018-06-17T03:36:52.002Z,8.90
2018-06-17T03:39:19.588Z,8.20
2018-06-17T03:41:47.155Z,8.97
2018-06-17T03:44:15.896Z,8.93
2018-06-17T03:46:43.456Z,6.13
2018-06-17T03:49:11.012Z,7.90
2018-06-17T03:51:38.568Z,4.83
2018-06-17T03:54:06.461Z,5.93
2018-06-17T03:56:34.079Z,5.57
2018-06-17T03:59:01.767Z,6.40
2018-06-17T04:01:29.430Z,6.87
2018-06-17T04:03:56.990Z,5.17
2018-06-17T04:06:24.603Z,7.87
2018-06-17T04:08:52.123Z,6.03
2018-06-17T04:11:19.684Z,6.03
2018-06-17T04:13:47.261Z,7.33
2018-06-17T04:16:15.447Z,8.27
2018-06-17T04:18:43.062Z,8.93
2018-06-17T04:21:10.625Z,10.40
2018-06-17T04:23:38.199Z,9.23
2018-06-17T04:26:05.984Z,9.43
2018-06-17T04:28:33.878Z,9.20
2018-06-17T04:31:01.541Z,9.47
2018-06-17T04:33:29.149Z,9.70
2018-06-17T04:35:56.695Z,8.03
2018-06-17T04:38:24.254Z,9.00
2018-06-17T04:40:51.847Z,9.27
2018-06-17T04:43:19.435Z,7.13
2018-06-17T04:45:47.033Z,6.73
2018-06-17T04:48:14.658Z,8.00
2018-06-17T04:50:42.283Z,10.87
2018-06-17T04:53:09.909Z,9.03
2018-06-17T04:55:37.485Z,9.67
2018-06-17T04:58:05.383Z,10.30
2018-06-17T05:00:33.060Z,9.67
2018-06-17T05:03:00.661Z,8.70
2018-06-17T05:05:29.268Z,14.33
2018-06-17T05:07:56.899Z,11.10
2018-06-17T05:10:24.647Z,13.33
2018-06-17T05:12:52.287Z,9.07
2018-06-17T05:15:19.815Z,7.60
2018-06-17T05:17:47.433Z,6.30
2018-06-17T05:20:15.186Z,6.27
2018-06-17T05:22:42.751Z,7.00
2018-06-17T05:25:10.321Z,6.67
2018-06-17T05:27:38.014Z,10.53
2018-06-17T05:30:05.716Z,8.97
2018-06-17T05:32:33.454Z,9.83
2018-06-17T05:35:01.077Z,7.30
2018-06-17T05:37:28.721Z,8.33
2018-06-17T05:39:56.282Z,8.80
2018-06-17T05:42:23.861Z,8.17
2018-06-17T05:44:51.405Z,5.60
2018-06-17T05:47:18.961Z,7.03
2018-06-17T05:49:46.521Z,7.60
2018-06-17T05:52:14.385Z,7.20
2018-06-17T05:54:42.063Z,5.57
2018-06-17T05:57:09.704Z,5.37
2018-06-17T05:59:37.311Z,7.37
2018-06-17T06:02:05.099Z,5.70
2018-06-17T06:04:32.860Z,5.67
2018-06-17T06:07:00.407Z,6.40
2018-06-17T06:09:29.244Z,7.97
2018-06-17T06:11:57.807Z,8.00
2018-06-17T06:14:25.548Z,7.07
2018-06-17T06:16:53.083Z,5.27
2018-06-17T06:19:20.715Z,4.97
2018-06-17T06:21:48.305Z,6.13
2018-06-17T06:24:15.915Z,6.30
2018-06-17T06:26:43.486Z,6.57
2018-06-17T06:29:11.142Z,6.93
2018-06-17T06:31:38.616Z,8.37
2018-06-17T06:34:06.190Z,6.97
2018-06-17T06:36:33.742Z,5.90
2018-06-17T06:39:01.320Z,6.63
2018-06-17T06:41:29.048Z,6.47
2018-06-17T06:43:56.660Z,8.37
2018-06-17T06:46:24.294Z,7.50
2018-06-17T06:48:51.982Z,6.97
2018-06-17T06:51:19.612Z,6.43
2018-06-17T06:53:48.193Z,8.07
2018-06-17T06:56:15.800Z,7.63
2018-06-17T06:58:43.391Z,7.77
2018-06-17T07:01:11.020Z,7.30
2018-06-17T07:03:50.023Z,6.77
2018-06-17T07:06:29.088Z,7.27
2018-06-17T07:09:08.092Z,6.23
2018-06-17T07:11:35.704Z,8.97
2018-06-17T07:14:03.321Z,5.07
2018-06-17T07:16:42.429Z,6.60
2018-06-17T07:19:10.096Z,8.80
2018-06-17T07:21:37.770Z,8.40
2018-06-17T07:24:05.356Z,7.93
2018-06-17T07:26:46.334Z,7.60
2018-06-17T07:29:26.750Z,5.87
2018-06-17T07:31:54.397Z,8.50
2018-06-17T07:34:22.065Z,7.30
2018-06-17T07:36:49.697Z,8.07
2018-06-17T07:40:29.872Z,8.07
2018-06-17T07:42:57.612Z,6.70
2018-06-17T07:45:25.282Z,11.63
2018-06-17T07:47:52.960Z,12.13
2018-06-17T07:50:32.104Z,9.00
2018-06-17T07:53:10.975Z,7.40
2018-06-17T07:55:38.529Z,9.13
2018-06-17T07:58:06.091Z,9.13
2018-06-17T08:00:33.712Z,8.17
2018-06-17T08:03:01.669Z,8.07
2018-06-17T08:05:29.300Z,10.07
2018-06-17T08:07:56.908Z,9.23
2018-06-17T08:10:24.495Z,10.60
2018-06-17T08:12:52.116Z,9.13
2018-06-17T08:15:19.716Z,9.87
2018-06-17T08:17:47.419Z,8.30
2018-06-17T08:20:15.466Z,8.87
2018-06-17T08:22:43.163Z,8.60
2018-06-17T08:25:10.734Z,6.33
2018-06-17T08:27:38.349Z,7.53
2018-06-17T08:30:06.173Z,6.93
2018-06-17T08:32:33.867Z,8.50
2018-06-17T08:35:01.755Z,5.10
2018-06-17T08:37:29.338Z,7.13
2018-06-17T08:39:56.912Z,8.57
2018-06-17T08:42:24.490Z,8.37
2018-06-17T08:44:52.095Z,9.63
2018-06-17T08:47:19.755Z,8.10
2018-06-17T08:49:47.370Z,7.67
2018-06-17T08:52:14.997Z,6.77
2018-06-17T08:54:42.680Z,8.67
2018-06-17T08:57:10.323Z,6.47
2018-06-17T08:59:37.912Z,9.47
2018-06-17T09:02:05.597Z,7.70
2018-06-17T09:04:33.197Z,6.83
2018-06-17T09:07:03.780Z,8.90
2018-06-17T09:09:31.447Z,6.93
2018-06-17T09:12:02.085Z,9.80
2018-06-17T09:14:29.788Z,6.40
2018-06-17T09:16:57.512Z,6.13
2018-06-17T09:19:25.127Z,8.87
2018-06-17T09:21:52.684Z,9.87
2018-06-17T09:24:20.279Z,5.80
2018-06-17T09:26:47.891Z,6.07
2018-06-17T09:29:15.529Z,8.13
2018-06-17T09:31:43.243Z,7.23
2018-06-17T09:34:10.873Z,7.97
2018-06-17T09:36:38.508Z,5.83
2018-06-17T09:39:07.519Z,6.83
2018-06-17T09:41:35.108Z,5.30
2018-06-17T09:44:02.813Z,4.20
2018-06-17T09:46:30.576Z,6.67
2018-06-17T09:48:58.192Z,7.60
2018-06-17T09:51:25.810Z,8.27
2018-06-17T09:53:53.444Z,10.07
2018-06-17T09:56:21.072Z,6.70
2018-06-17T09:58:48.735Z,9.27
2018-06-17T10:01:16.332Z,10.43
2018-06-17T10:03:43.969Z,9.37
2018-06-17T10:06:11.616Z,8.23
2018-06-17T10:08:39.263Z,7.83
2018-06-17T10:11:07.551Z,7.60
2018-06-17T10:13:37.693Z,8.23
2018-06-17T10:16:05.678Z,7.57
2018-06-17T10:18:33.358Z,9.57
2018-06-17T10:21:01.009Z,6.97
2018-06-17T10:23:28.685Z,6.17
2018-06-17T10:25:56.219Z,8.07
2018-06-17T10:28:24.976Z,8.63
2018-06-17T10:30:53.244Z,8.07
2018-06-17T10:33:21.082Z,7.00
2018-06-17T10:35:48.781Z,5.73
2018-06-17T10:38:16.489Z,7.27
2018-06-17T10:40:44.318Z,7.43
2018-06-17T10:43:13.321Z,10.97
2018-06-17T10:45:41.166Z,6.27
2018-06-17T10:48:09.053Z,11.67
2018-06-17T10:50:36.800Z,7.20
2018-06-17T10:53:05.068Z,5.80
2018-06-17T10:55:32.729Z,7.90
2018-06-17T10:58:00.544Z,7.07
2018-06-17T11:00:28.201Z,9.83
2018-06-17T11:02:55.826Z,8.90
2018-06-17T11:05:23.434Z,8.93
2018-06-17T11:07:51.242Z,6.73
2018-06-17T11:10:18.845Z,10.17
2018-06-17T11:12:46.441Z,7.23
2018-06-17T11:15:14.131Z,7.23
2018-06-17T11:17:41.736Z,7.53
2018-06-17T11:20:09.284Z,9.50
2018-06-17T11:22:36.932Z,6.53
2018-06-17T11:25:05.544Z,8.57
2018-06-17T11:27:33.206Z,6.57
2018-06-17T11:30:00.846Z,6.53
2018-06-17T11:32:28.450Z,6.27
2018-06-17T11:34:55.993Z,7.17
2018-06-17T11:37:23.821Z,7.70
2018-06-17T11:39:51.608Z,7.97
2018-06-17T11:42:19.769Z,10.87
2018-06-17T11:44:47.474Z,8.60
2018-06-17T11:47:15.623Z,6.57
2018-06-17T11:49:45.102Z,7.80
2018-06-17T11:52:13.136Z,7.80
2018-06-17T11:54:41.016Z,6.47
2018-06-17T11:57:08.946Z,7.17
2018-06-17T11:59:36.564Z,8.37
2018-06-17T12:02:05.770Z,6.67
2018-06-17T12:04:33.584Z,7.77
2018-06-17T12:07:04.393Z,7.63
2018-06-17T12:09:32.117Z,7.60
2018-06-17T12:11:59.705Z,7.33
2018-06-17T12:14:27.300Z,6.93
2018-06-17T12:16:54.940Z,7.13
2018-06-17T12:19:22.592Z,6.17
2018-06-17T12:21:50.174Z,8.20
2018-06-17T12:24:17.904Z,7.87
2018-06-17T12:26:45.810Z,8.20
2018-06-17T12:29:13.736Z,7.13
2018-06-17T12:31:41.441Z,6.77
2018-06-17T12:34:09.150Z,8.67
2018-06-17T12:36:36.831Z,9.03
2018-06-17T12:39:07.978Z,7.20
2018-06-17T12:41:35.580Z,8.00
2018-06-17T12:44:03.227Z,7.40
2018-06-17T12:46:30.859Z,6.83
2018-06-17T12:48:58.539Z,9.77
2018-06-17T12:51:26.169Z,7.33
2018-06-17T12:53:53.884Z,7.60
2018-06-17T12:56:21.514Z,7.03
2018-06-17T12:58:49.188Z,6.20
2018-06-17T13:01:16.846Z,7.30
2018-06-17T13:03:44.484Z,9.73
2018-06-17T13:06:12.104Z,8.53
2018-06-17T13:08:39.778Z,6.10
2018-06-17T13:11:07.292Z,6.37
2018-06-17T13:13:34.884Z,6.40
2018-06-17T13:16:03.088Z,5.80
2018-06-17T13:18:30.696Z,6.30
2018-06-17T13:20:58.596Z,5.70
2018-06-17T13:23:26.261Z,7.97
2018-06-17T13:25:53.896Z,6.43
2018-06-17T13:28:21.645Z,4.47
2018-06-17T13:30:49.447Z,7.57
2018-06-17T13:33:17.200Z,7.50
2018-06-17T13:35:44.800Z,6.27
2018-06-17T13:38:12.486Z,7.57
2018-06-17T13:40:40.323Z,5.77
2018-06-17T13:43:08.110Z,7.47
2018-06-17T13:45:35.786Z,6.43
2018-06-17T13:48:03.464Z,9.47
2018-06-17T13:50:31.072Z,6.63
2018-06-17T13:52:58.706Z,5.17
2018-06-17T13:55:26.335Z,7.57
2018-06-17T13:57:53.992Z,9.47
2018-06-17T14:00:21.666Z,6.50
2018-06-17T14:02:49.288Z,5.13
2018-06-17T14:05:16.932Z,6.00
2018-06-17T14:07:44.534Z,5.73
2018-06-17T14:10:12.181Z,5.83
2018-06-17T14:12:39.871Z,7.40
2018-06-17T14:15:08.876Z,4.10
2018-06-17T14:17:36.527Z,6.33
2018-06-17T14:20:05.280Z,9.23
2018-06-17T14:22:33.013Z,5.33
2018-06-17T14:25:00.724Z,5.80
2018-06-17T14:27:28.380Z,10.10
2018-06-17T14:29:56.035Z,5.73
2018-06-17T14:32:23.662Z,11.43
2018-06-17T14:34:51.281Z,7.70
2018-06-17T14:37:18.986Z,5.03
2018-06-17T14:39:46.632Z,5.23
2018-06-17T14:42:19.809Z,6.13
2018-06-17T14:44:53.019Z,8.00
2018-06-17T14:47:26.072Z,6.60
2018-06-17T14:49:59.296Z,6.70
2018-06-17T14:52:32.520Z,5.30
2018-06-17T14:55:00.128Z,5.93
2018-06-17T14:57:27.949Z,4.43
2018-06-17T14:59:55.729Z,5.17
2018-06-17T15:02:23.319Z,6.53
2018-06-17T15:04:50.909Z,6.30
2018-06-17T15:07:18.553Z,5.20
2018-06-17T15:09:46.213Z,3.50
2018-06-17T15:12:14.031Z,6.63
2018-06-17T15:14:41.749Z,5.07
2018-06-17T15:17:09.545Z,4.17
2018-06-17T15:19:37.134Z,3.37
2018-06-17T15:22:06.054Z,4.83
2018-06-17T15:24:33.715Z,5.53
2018-06-17T15:27:01.336Z,5.17
2018-06-17T15:29:28.960Z,8.13
2018-06-17T15:32:02.249Z,5.87
2018-06-17T15:34:35.452Z,5.33
2018-06-17T15:37:08.632Z,6.53
2018-06-17T15:39:41.988Z,5.80
2018-06-17T15:42:10.438Z,3.90
2018-06-17T15:44:38.047Z,5.17
2018-06-17T15:47:05.694Z,5.60
2018-06-17T15:49:35.836Z,7.40
2018-06-17T15:52:03.523Z,4.87
2018-06-17T15:54:31.155Z,5.20
2018-06-17T15:56:58.764Z,5.50
2018-06-17T15:59:26.564Z,7.13
2018-06-17T16:01:54.222Z,6.70
2018-06-17T16:04:21.892Z,8.80
2018-06-17T16:06:49.541Z,7.57
2018-06-17T16:09:17.409Z,7.00
2018-06-17T16:11:50.460Z,7.20
2018-06-17T16:14:23.733Z,6.30
2018-06-17T16:19:03.783Z,8.83
2018-06-17T16:21:31.440Z,5.53
2018-06-17T16:23:59.292Z,6.07
2018-06-17T16:26:26.935Z,8.57
2018-06-17T16:28:54.522Z,4.73
2018-06-17T16:31:22.163Z,6.03
2018-06-17T16:33:49.780Z,5.47
2018-06-17T16:36:17.348Z,5.20
2018-06-17T16:38:45.025Z,5.43
2018-06-17T16:41:12.583Z,8.07
2018-06-17T16:43:40.180Z,5.43
2018-06-17T16:46:07.768Z,4.63
2018-06-17T16:48:35.464Z,7.23
2018-06-17T16:51:08.844Z,5.47
2018-06-17T16:53:42.051Z,7.60
2018-06-17T16:56:15.302Z,10.47
2018-06-17T16:58:48.499Z,6.30
2018-06-17T17:01:16.282Z,5.80
2018-06-17T17:03:43.885Z,9.57
2018-06-17T17:06:11.602Z,5.73
2018-06-17T17:08:39.319Z,7.80
2018-06-17T17:11:06.899Z,5.97
2018-06-17T17:13:34.463Z,5.53
2018-06-17T17:16:02.116Z,7.00
2018-06-17T17:18:29.895Z,6.23
2018-06-17T17:20:57.536Z,9.83
2018-06-17T17:23:25.336Z,5.57
2018-06-17T17:25:52.887Z,8.07
2018-06-17T17:28:20.556Z,5.30
2018-06-17T17:30:49.383Z,5.77
2018-06-17T17:33:22.652Z,7.90
2018-06-17T17:35:55.916Z,6.47
2018-06-17T17:38:32.912Z,7.40
2018-06-17T17:41:02.768Z,6.40
2018-06-17T17:43:30.400Z,9.23
2018-06-17T17:46:03.651Z,5.33
2018-06-17T17:48:31.321Z,7.37
2018-06-17T17:50:59.324Z,6.40
2018-06-17T17:53:26.982Z,6.33
2018-06-17T17:55:54.608Z,6.80
2018-06-17T17:58:22.241Z,8.30
2018-06-17T18:00:49.939Z,8.53
2018-06-17T18:03:17.880Z,5.27
2018-06-17T18:05:45.545Z,5.03
2018-06-17T18:08:13.263Z,6.00
2018-06-17T18:10:41.149Z,8.43
2018-06-17T18:13:09.478Z,5.27
2018-06-17T18:15:43.884Z,6.47
2018-06-17T18:18:11.968Z,7.07
2018-06-17T18:20:40.318Z,6.43
2018-06-17T18:23:08.222Z,8.30
2018-06-17T18:25:41.343Z,7.33
2018-06-17T18:28:14.552Z,8.97
2018-06-17T18:30:48.158Z,8.73
2018-06-17T18:33:21.408Z,6.70
2018-06-17T18:35:54.927Z,9.50
2018-06-17T18:38:22.587Z,9.60
2018-06-17T18:40:50.331Z,7.10
2018-06-17T18:43:18.037Z,8.17
2018-06-17T18:45:45.744Z,7.53
2018-06-17T18:48:13.377Z,6.00
2018-06-17T18:50:41.108Z,5.97
2018-06-17T18:53:08.765Z,5.53
2018-06-17T18:55:36.338Z,6.53
2018-06-17T18:58:04.407Z,7.47
2018-06-17T19:00:32.106Z,6.93
2018-06-17T19:02:59.715Z,7.93
2018-06-17T19:05:27.272Z,9.57
2018-06-17T19:07:54.928Z,8.00
2018-06-17T19:10:28.202Z,6.53
2018-06-17T19:13:01.389Z,6.17
2018-06-17T19:15:34.677Z,7.57
2018-06-17T19:18:06.033Z,6.37
2018-06-17T19:20:33.602Z,6.43
2018-06-17T19:23:01.262Z,5.40
2018-06-17T19:25:28.945Z,9.43
2018-06-17T19:27:57.075Z,6.57
2018-06-17T19:30:24.800Z,8.07
2018-06-17T19:32:52.606Z,5.40
2018-06-17T19:35:20.334Z,5.90
2018-06-17T19:37:47.907Z,7.03
2018-06-17T19:40:15.530Z,5.60
2018-06-17T19:42:43.263Z,6.07
2018-06-17T19:45:10.877Z,6.47
2018-06-17T19:47:38.594Z,12.90
2018-06-17T19:50:11.980Z,10.50
2018-06-17T19:52:45.239Z,7.30
2018-06-17T19:55:18.511Z,5.90
2018-06-17T19:57:51.730Z,6.10
2018-06-17T20:00:25.127Z,8.13
2018-06-17T20:02:52.749Z,7.30
2018-06-17T20:05:20.384Z,5.67
2018-06-17T20:07:48.059Z,6.40
2018-06-17T20:10:15.705Z,7.00
2018-06-17T20:12:43.343Z,6.63
2018-06-17T20:15:11.595Z,7.17
2018-06-17T20:17:39.268Z,6.03
2018-06-17T20:20:06.953Z,6.13
2018-06-17T20:22:34.695Z,7.03
2018-06-17T20:25:02.645Z,5.63
2018-06-17T20:27:30.277Z,4.93
2018-06-17T20:29:57.948Z,6.07
2018-06-17T20:32:31.010Z,7.10
2018-06-17T20:35:04.379Z,10.50
2018-06-17T20:37:37.701Z,8.53
2018-06-17T20:40:11.111Z,8.73
2018-06-17T20:42:44.572Z,10.80
2018-06-17T20:45:12.796Z,6.63
2018-06-17T20:47:40.429Z,5.03
2018-06-17T20:50:08.030Z,8.27
2018-06-17T20:52:35.923Z,9.80
2018-06-17T20:55:03.644Z,5.37
2018-06-17T20:57:31.250Z,8.90
2018-06-17T20:59:58.856Z,6.97
2018-06-17T21:02:26.539Z,9.00
2018-06-17T21:04:54.136Z,10.43
2018-06-17T21:07:21.813Z,9.63
2018-06-17T21:09:49.388Z,13.00
2018-06-17T21:12:18.320Z,7.30
2018-06-17T21:14:46.001Z,7.63
2018-06-17T21:17:13.735Z,11.13
2018-06-17T21:19:47.994Z,10.33
2018-06-17T21:22:21.281Z,8.17
2018-06-17T21:24:54.506Z,6.53
2018-06-17T21:27:27.674Z,8.20
2018-06-17T21:29:55.257Z,7.00
2018-06-17T21:32:22.864Z,7.97
2018-06-17T21:34:50.727Z,8.23
2018-06-17T21:37:21.790Z,7.17
2018-06-17T21:39:49.377Z,9.60
2018-06-17T21:42:19.747Z,8.43
2018-06-17T21:44:47.371Z,8.83
2018-06-17T21:47:15.308Z,9.33
2018-06-17T21:49:42.962Z,10.53
2018-06-17T21:52:10.555Z,8.47
2018-06-17T21:54:38.115Z,6.27
2018-06-17T21:57:05.855Z,6.60
2018-06-17T21:59:33.460Z,8.77
2018-06-17T22:02:01.143Z,8.40
2018-06-17T22:04:34.245Z,11.47
2018-06-17T22:07:01.996Z,10.73
2018-06-17T22:09:35.088Z,9.30
2018-06-17T22:12:08.313Z,9.37
2018-06-17T22:14:41.499Z,9.03
2018-06-17T22:17:14.792Z,10.70
2018-06-17T22:19:42.435Z,8.53
2018-06-17T22:22:10.401Z,10.50
2018-06-17T22:24:37.997Z,8.57
2018-06-17T22:27:05.567Z,8.03
2018-06-17T22:29:33.112Z,8.50
2018-06-17T22:32:00.803Z,8.43
2018-06-17T22:34:28.425Z,9.80
2018-06-17T22:36:56.020Z,6.73
2018-06-17T22:39:23.692Z,6.33
2018-06-17T22:41:51.338Z,7.47
2018-06-17T22:44:18.952Z,4.70
2018-06-17T22:46:46.644Z,8.10
2018-06-17T22:49:14.198Z,10.43
2018-06-17T22:51:41.769Z,6.33
2018-06-17T22:54:20.747Z,8.27
2018-06-17T22:56:53.940Z,3.83
2018-06-17T22:59:27.104Z,7.70
2018-06-17T23:03:03.025Z,5.07
2018-06-17T23:05:36.318Z,7.50
2018-06-17T23:08:10.863Z,9.50
2018-06-17T23:10:38.423Z,8.47
2018-06-17T23:13:06.004Z,4.90
2018-06-17T23:15:33.565Z,6.83
2018-06-17T23:18:01.221Z,6.37
2018-06-17T23:20:28.899Z,7.47
2018-06-17T23:22:56.470Z,7.50
2018-06-17T23:25:24.048Z,5.37
2018-06-17T23:27:51.628Z,7.67
2018-06-17T23:30:19.642Z,6.03
2018-06-17T23:32:47.366Z,5.73
2018-06-17T23:35:15.123Z,7.30
2018-06-17T23:37:42.702Z,5.80
2018-06-17T23:40:10.293Z,6.83
2018-06-17T23:42:37.858Z,5.67
2018-06-17T23:45:05.542Z,7.10
2018-06-17T23:47:38.787Z,6.87
2018-06-17T23:50:11.949Z,4.93
2018-06-17T23:52:45.086Z,5.53
2018-06-17T23:55:18.413Z,7.23
2018-06-17T23:57:46.032Z,5.80
